createdAt,value
2018-03-30T00:00:26.745Z,6.40
2018-03-30T00:03:25.762Z,6.30
2018-03-30T00:08:55.800Z,6.20
2018-03-30T00:14:28.526Z,6.30
2018-03-30T00:17:26.680Z,6.50
2018-03-30T00:19:54.975Z,6.30
2018-03-30T00:22:23.226Z,6.40
2018-03-30T00:24:51.440Z,6.40
2018-03-30T00:39:28.512Z,6.10
2018-03-30T00:47:59.127Z,6.20
2018-03-30T00:50:27.369Z,6.10
2018-03-30T00:52:56.389Z,6.30
2018-03-30T00:55:24.702Z,6.30
2018-03-30T01:00:54.554Z,5.80
2018-03-30T01:06:24.253Z,6.00
2018-03-30T01:08:52.465Z,5.90
2018-03-30T01:11:21.453Z,5.60
2018-03-30T01:13:49.703Z,5.50
2018-03-30T01:19:18.035Z,5.70
2018-03-30T01:30:49.433Z,6.20
2018-03-30T01:33:27.567Z,6.10
2018-03-30T01:36:25.802Z,6.10
2018-03-30T01:38:54.056Z,6.10
2018-03-30T01:44:29.635Z,6.00
2018-03-30T01:46:57.858Z,5.50
2018-03-30T01:49:26.079Z,5.50
2018-03-30T01:51:54.365Z,5.70
2018-03-30T01:54:24.101Z,5.90
2018-03-30T01:56:53.130Z,6.20
2018-03-30T01:59:21.354Z,6.20
2018-03-30T02:01:49.569Z,6.30
2018-03-30T02:04:17.828Z,6.40
2018-03-30T02:06:46.813Z,6.10
2018-03-30T02:12:29.125Z,6.20
2018-03-30T02:14:57.418Z,5.80
2018-03-30T02:20:27.484Z,5.50
2018-03-30T02:23:25.748Z,5.50
2018-03-30T02:25:53.996Z,5.60
2018-03-30T02:28:23.106Z,5.40
2018-03-30T02:30:51.365Z,5.30
2018-03-30T02:33:20.403Z,5.50
2018-03-30T02:35:48.861Z,5.50
2018-03-30T02:38:17.074Z,5.70
2018-03-30T02:43:45.986Z,5.80
2018-03-30T02:46:27.114Z,6.00
2018-03-30T02:56:36.552Z,6.20
2018-03-30T02:59:26.880Z,6.10
2018-03-30T03:02:26.458Z,6.20
2018-03-30T03:07:54.635Z,5.80
2018-03-30T03:10:22.856Z,5.60
2018-03-30T03:12:51.848Z,5.60
2018-03-30T03:15:20.870Z,5.30
2018-03-30T03:23:51.230Z,5.50
2018-03-30T03:26:19.460Z,5.40
2018-03-30T03:31:48.493Z,5.70
2018-03-30T03:34:17.483Z,5.90
2018-03-30T03:36:46.490Z,5.80
2018-03-30T03:39:27.499Z,5.70
2018-03-30T03:41:55.792Z,5.40
2018-03-30T03:44:24.013Z,5.80
2018-03-30T03:46:52.241Z,5.60
2018-03-30T03:49:27.740Z,5.80
2018-03-30T03:51:56.318Z,5.40
2018-03-30T03:54:24.529Z,5.60
2018-03-30T03:56:52.784Z,5.80
2018-03-30T03:59:20.998Z,5.70
2018-03-30T04:04:50.262Z,6.00
2018-03-30T04:07:18.673Z,6.10
2018-03-30T04:09:46.899Z,6.00
2018-03-30T04:12:16.014Z,6.00
2018-03-30T04:17:44.570Z,6.00
2018-03-30T04:20:12.781Z,6.00
2018-03-30T04:22:40.988Z,5.30
2018-03-30T04:25:09.233Z,5.70
2018-03-30T04:27:37.459Z,6.10
2018-03-30T04:30:05.691Z,6.10
2018-03-30T04:32:33.945Z,5.90
2018-03-30T04:35:02.937Z,6.20
2018-03-30T04:37:31.919Z,6.00
2018-03-30T04:40:00.975Z,6.00
2018-03-30T04:42:29.181Z,6.00
2018-03-30T04:44:57.384Z,6.00
2018-03-30T04:47:25.689Z,6.10
2018-03-30T04:49:53.925Z,6.10
2018-03-30T04:52:22.502Z,6.20
2018-03-30T04:54:51.522Z,6.00
2018-03-30T04:57:19.756Z,5.90
2018-03-30T04:59:48.747Z,6.10
2018-03-30T05:02:17.766Z,6.10
2018-03-30T05:04:45.999Z,6.10
2018-03-30T05:07:14.211Z,6.00
2018-03-30T05:09:42.466Z,6.20
2018-03-30T05:12:11.440Z,6.00
2018-03-30T05:14:39.653Z,6.00
2018-03-30T05:17:07.910Z,6.00
2018-03-30T05:19:37.684Z,5.70
2018-03-30T05:22:05.959Z,5.70
2018-03-30T05:24:34.226Z,5.90
2018-03-30T05:27:28.518Z,6.10
2018-03-30T05:29:57.014Z,6.00
2018-03-30T05:32:26.198Z,5.90
2018-03-30T05:34:54.412Z,5.90
2018-03-30T05:37:23.424Z,6.20
2018-03-30T05:39:51.649Z,6.20
2018-03-30T05:42:19.872Z,6.30
2018-03-30T05:44:48.146Z,6.10
2018-03-30T05:47:16.371Z,6.00
2018-03-30T05:49:44.597Z,6.30
2018-03-30T05:55:27.378Z,6.20
2018-03-30T05:57:55.600Z,6.20
2018-03-30T06:00:23.906Z,6.20
2018-03-30T06:02:52.194Z,6.20
2018-03-30T06:05:20.420Z,6.30
2018-03-30T06:07:48.683Z,6.20
2018-03-30T06:10:17.669Z,6.20
2018-03-30T06:12:46.690Z,6.30
2018-03-30T06:15:14.950Z,6.20
2018-03-30T06:17:43.956Z,6.10
2018-03-30T06:20:27.037Z,6.00
2018-03-30T06:22:55.300Z,6.30
2018-03-30T06:25:23.549Z,6.40
2018-03-30T06:27:51.841Z,6.30
2018-03-30T06:30:20.070Z,6.40
2018-03-30T06:32:48.286Z,5.70
2018-03-30T06:35:16.569Z,6.20
2018-03-30T06:40:45.037Z,6.20
2018-03-30T06:43:13.304Z,5.50
2018-03-30T06:45:42.309Z,5.50
2018-03-30T06:48:10.528Z,5.50
2018-03-30T06:50:39.510Z,5.40
2018-03-30T06:53:07.865Z,5.30
2018-03-30T06:55:36.084Z,5.30
2018-03-30T06:58:05.119Z,5.30
2018-03-30T07:00:33.333Z,5.30
2018-03-30T07:03:01.555Z,5.40
2018-03-30T07:05:29.818Z,5.50
2018-03-30T07:07:58.030Z,5.50
2018-03-30T07:10:26.246Z,5.60
2018-03-30T07:12:55.273Z,5.80
2018-03-30T07:15:23.495Z,5.70
2018-03-30T07:17:51.714Z,5.80
2018-03-30T07:20:19.968Z,5.90
2018-03-30T07:22:48.977Z,6.00
2018-03-30T07:34:29.045Z,6.40
2018-03-30T07:37:27.793Z,6.70
2018-03-30T07:43:26.635Z,6.70
2018-03-30T07:45:54.898Z,6.70
2018-03-30T07:48:29.356Z,6.80
2018-03-30T08:00:26.962Z,7.20
2018-03-30T08:06:26.690Z,7.50
2018-03-30T08:18:27.752Z,7.70
2018-03-30T08:24:26.686Z,7.90
2018-03-30T08:42:26.257Z,8.30
2018-03-30T09:03:26.954Z,8.80
2018-03-30T09:09:26.501Z,9.00
2018-03-30T09:24:26.260Z,9.90
2018-03-30T09:33:26.436Z,9.80
2018-03-30T09:45:27.413Z,10.10
2018-03-30T09:48:26.189Z,10.40
2018-03-30T10:06:26.652Z,11.00
2018-03-30T10:20:39.333Z,11.10
2018-03-30T10:32:12.251Z,11.70
2018-03-30T10:34:41.073Z,11.70
2018-03-30T10:40:28.987Z,11.60
2018-03-30T10:48:52.273Z,12.00
2018-03-30T10:51:21.082Z,12.00
2018-03-30T10:53:49.307Z,12.00
2018-03-30T10:56:18.361Z,12.00
2018-03-30T10:58:46.587Z,11.90
2018-03-30T11:03:59.974Z,11.90
2018-03-30T11:06:28.188Z,11.80
2018-03-30T11:19:32.046Z,12.60
2018-03-30T11:22:26.433Z,12.80
2018-03-30T11:37:26.140Z,12.80
2018-03-30T11:55:27.061Z,13.90
2018-03-30T12:01:26.732Z,14.00
2018-03-30T12:25:27.091Z,13.90
2018-03-30T12:31:26.674Z,14.60
2018-03-30T12:43:27.182Z,14.60
2018-03-30T12:49:27.000Z,15.40
2018-03-30T12:57:55.824Z,15.70
2018-03-30T13:03:30.284Z,15.90
2018-03-30T13:09:26.829Z,16.10
2018-03-30T13:18:26.997Z,16.60
2018-03-30T13:26:57.617Z,16.90
2018-03-30T13:32:28.366Z,17.00
2018-03-30T13:35:27.006Z,17.10
2018-03-30T13:41:26.900Z,17.30
2018-03-30T13:46:56.429Z,17.40
2018-03-30T13:55:28.436Z,17.10
2018-03-30T14:01:27.695Z,17.40
2018-03-30T14:07:26.477Z,17.60
2018-03-30T14:12:56.073Z,17.60
2018-03-30T14:15:45.226Z,17.60
2018-03-30T14:27:31.921Z,17.50
2018-03-30T14:33:23.103Z,17.40
2018-03-30T15:09:26.810Z,17.50
2018-03-30T15:18:27.268Z,17.60
2018-03-30T15:24:00.157Z,17.50
2018-03-30T15:29:28.302Z,17.20
2018-03-30T15:32:27.732Z,16.90
2018-03-30T15:34:55.976Z,16.90
2018-03-30T15:37:25.861Z,17.20
2018-03-30T15:40:12.557Z,17.20
2018-03-30T15:48:44.157Z,16.60
2018-03-30T15:51:40.203Z,16.60
2018-03-30T15:54:27.903Z,17.00
2018-03-30T15:56:56.866Z,16.90
2018-03-30T15:59:25.152Z,17.00
2018-03-30T16:01:53.414Z,16.60
2018-03-30T16:04:21.642Z,16.60
2018-03-30T16:09:56.680Z,16.50
2018-03-30T16:18:46.359Z,16.50
2018-03-30T16:27:29.207Z,16.00
2018-03-30T16:33:28.178Z,16.10
2018-03-30T16:39:27.619Z,16.30
2018-03-30T16:42:26.514Z,16.20
2018-03-30T16:47:54.953Z,16.00
2018-03-30T16:50:22.431Z,15.80
2018-03-30T16:52:49.945Z,15.70
2018-03-30T16:55:18.196Z,15.80
2018-03-30T16:57:45.670Z,15.70
2018-03-30T17:00:13.947Z,15.50
2018-03-30T17:02:42.212Z,15.50
2018-03-30T17:05:27.436Z,15.50
2018-03-30T17:10:55.232Z,15.00
2018-03-30T17:13:23.375Z,14.90
2018-03-30T17:15:50.850Z,14.70
2018-03-30T17:18:18.327Z,14.80
2018-03-30T17:20:45.818Z,14.80
2018-03-30T17:26:13.999Z,14.70
2018-03-30T17:28:42.237Z,14.60
2018-03-30T17:31:09.783Z,14.60
2018-03-30T17:33:37.267Z,14.50
2018-03-30T17:36:04.741Z,14.40
2018-03-30T17:38:33.017Z,14.40
2018-03-30T17:41:00.494Z,14.40
2018-03-30T17:54:29.652Z,14.30
2018-03-30T17:56:57.911Z,14.10
2018-03-30T18:02:28.004Z,13.90
2018-03-30T18:08:27.068Z,13.70
2018-03-30T18:13:54.612Z,13.70
2018-03-30T18:19:29.103Z,13.60
2018-03-30T18:22:28.148Z,13.30
2018-03-30T18:25:27.116Z,13.30
2018-03-30T18:30:55.242Z,13.20
2018-03-30T18:33:28.744Z,13.20
2018-03-30T18:38:56.520Z,13.20
2018-03-30T18:44:29.902Z,13.00
2018-03-30T18:46:57.392Z,12.90
2018-03-30T18:52:30.126Z,12.70
2018-03-30T18:54:57.596Z,12.70
2018-03-30T18:57:29.425Z,12.50
2018-03-30T18:59:56.917Z,12.50
2018-03-30T19:02:26.576Z,12.50
2018-03-30T19:07:55.352Z,12.40
2018-03-30T19:13:22.769Z,12.30
2018-03-30T19:18:44.882Z,12.20
2018-03-30T19:21:27.581Z,12.20
2018-03-30T19:26:55.330Z,12.10
2018-03-30T19:32:29.589Z,12.20
2018-03-30T19:34:57.834Z,11.90
2018-03-30T19:37:25.312Z,11.90
2018-03-30T19:39:53.579Z,11.70
2018-03-30T19:45:22.718Z,11.70
2018-03-30T19:47:51.003Z,11.60
2018-03-30T19:50:18.495Z,11.70
2018-03-30T19:52:45.969Z,11.60
2018-03-30T19:55:28.048Z,11.50
2018-03-30T20:00:56.597Z,11.30
2018-03-30T20:03:24.834Z,11.00
2018-03-30T20:08:53.402Z,11.10
2018-03-30T20:11:20.879Z,11.10
2018-03-30T20:13:48.388Z,11.00
2018-03-30T20:16:16.627Z,11.10
2018-03-30T20:18:44.218Z,11.00
2018-03-30T20:21:12.476Z,10.90
2018-03-30T20:23:39.945Z,10.80
2018-03-30T20:26:29.314Z,11.00
2018-03-30T20:28:57.581Z,10.90
2018-03-30T20:31:25.861Z,10.80
2018-03-30T20:36:53.301Z,10.80
2018-03-30T20:39:20.833Z,10.80
2018-03-30T20:41:48.306Z,10.70
2018-03-30T20:44:15.786Z,10.70
2018-03-30T20:46:43.286Z,10.60
2018-03-30T20:49:11.542Z,10.60
2018-03-30T20:51:40.593Z,10.50
2018-03-30T20:54:08.065Z,10.50
2018-03-30T20:56:35.850Z,10.50
2018-03-30T20:59:03.378Z,10.60
2018-03-30T21:01:30.859Z,10.50
2018-03-30T21:03:58.730Z,10.50
2018-03-30T21:06:26.215Z,10.50
2018-03-30T21:08:54.496Z,10.40
2018-03-30T21:11:22.742Z,10.40
2018-03-30T21:13:50.214Z,10.40
2018-03-30T21:16:18.480Z,10.30
2018-03-30T21:18:46.783Z,10.20
2018-03-30T21:21:28.249Z,10.20
2018-03-30T21:23:56.524Z,10.10
2018-03-30T21:26:24.819Z,10.00
2018-03-30T21:28:52.288Z,10.00
2018-03-30T21:31:19.764Z,10.10
2018-03-30T21:33:47.275Z,10.10
2018-03-30T21:36:29.225Z,10.10
2018-03-30T21:38:56.741Z,10.00
2018-03-30T21:41:24.994Z,10.00
2018-03-30T21:43:52.535Z,10.00
2018-03-30T21:46:20.012Z,10.00
2018-03-30T21:48:48.276Z,9.80
2018-03-30T21:51:15.827Z,9.80
2018-03-30T21:53:43.302Z,9.90
2018-03-30T21:56:11.547Z,10.00
2018-03-30T21:58:39.050Z,9.90
2018-03-30T22:01:06.569Z,9.90
2018-03-30T22:03:34.081Z,10.00
2018-03-30T22:06:01.559Z,10.00
2018-03-30T22:08:29.082Z,9.80
2018-03-30T22:10:56.561Z,9.80
2018-03-30T22:13:24.040Z,9.70
2018-03-30T22:15:51.648Z,9.70
2018-03-30T22:18:19.996Z,9.70
2018-03-30T22:20:48.236Z,9.70
2018-03-30T22:23:15.736Z,9.70
2018-03-30T22:25:43.981Z,9.80
2018-03-30T22:28:11.463Z,9.80
2018-03-30T22:33:40.414Z,9.80
2018-03-30T22:36:07.925Z,9.80
2018-03-30T22:38:36.923Z,9.80
2018-03-30T22:41:04.444Z,9.80
2018-03-30T22:43:31.930Z,9.80
2018-03-30T22:46:27.464Z,9.80
2018-03-30T22:48:55.724Z,9.80
2018-03-30T22:51:23.810Z,9.80
2018-03-30T22:53:52.098Z,9.80
2018-03-30T22:56:20.346Z,9.80
2018-03-30T23:01:48.542Z,9.80
2018-03-30T23:04:29.178Z,9.80
2018-03-30T23:09:56.871Z,9.80
2018-03-30T23:15:25.214Z,9.80
2018-03-30T23:17:53.457Z,9.80
2018-03-30T23:20:20.926Z,9.80
2018-03-30T23:28:50.965Z,9.80
2018-03-30T23:31:19.210Z,9.80
2018-03-30T23:33:46.687Z,9.80
2018-03-30T23:36:14.219Z,9.80
2018-03-30T23:38:41.698Z,9.80
2018-03-30T23:41:29.801Z,9.80
2018-03-30T23:43:58.040Z,9.80
2018-03-30T23:46:26.392Z,9.80
2018-03-30T23:48:53.909Z,9.80
2018-03-30T23:51:21.376Z,9.70
2018-03-30T23:53:48.853Z,9.70
2018-03-30T23:56:16.369Z,9.70
2018-03-30T23:58:44.662Z,9.60
